Time;durP1;ratioP1;P1;durP2;ratioP2;P2;SDS_P1;SDS_P2;PMS_P1;PMS_P2;Temp;Humidity;BMP_temperature;BMP_pressure;BME280_temperature;BME280_humidity;BME280_pressure;Samples;Min_cycle;Max_cycle;Signal;HPM_P1;HPM_P2
2021/12/22 00:00:16;;;;;;;24.60;17.25;;;-1.80;99.90;;;;;;5079604;28;20379;-67
2021/12/22 00:02:48;;;;;;;28.65;17.50;;;-1.80;99.90;;;;;;5080935;28;20210;-67
2021/12/22 00:05:20;;;;;;;25.25;16.63;;;-1.80;99.90;;;;;;5081272;28;20374;-67
2021/12/22 00:07:48;;;;;;;21.90;15.95;;;-1.80;99.90;;;;;;5079715;28;20215;-67
2021/12/22 00:10:18;;;;;;;20.05;15.60;;;-1.80;99.90;;;;;;5079343;28;20239;-67
2021/12/22 00:12:46;;;;;;;18.45;15.60;;;-1.90;99.90;;;;;;5079512;28;20200;-67
2021/12/22 00:15:14;;;;;;;22.55;15.98;;;-1.90;99.90;;;;;;5079232;28;20540;-66
2021/12/22 00:17:42;;;;;;;22.33;15.88;;;-1.90;99.90;;;;;;5079271;28;20204;-66
2021/12/22 00:20:12;;;;;;;22.45;15.95;;;-1.90;99.90;;;;;;5079773;28;20216;-65
2021/12/22 00:22:41;;;;;;;24.08;16.58;;;-2.00;99.90;;;;;;5079137;28;20750;-67
2021/12/22 00:25:10;;;;;;;19.40;15.57;;;-2.00;99.90;;;;;;5078075;28;20474;-67
2021/12/22 00:27:37;;;;;;;31.27;15.25;;;-2.00;99.90;;;;;;5079530;28;20200;-67
2021/12/22 00:30:07;;;;;;;24.48;15.90;;;-2.00;99.90;;;;;;5079210;28;20227;-67
2021/12/22 00:32:36;;;;;;;20.23;14.80;;;-2.00;99.90;;;;;;5078939;28;20280;-66
2021/12/22 00:35:06;;;;;;;25.23;15.05;;;-2.00;99.90;;;;;;5078939;28;20395;-66
2021/12/22 00:37:35;;;;;;;22.65;15.55;;;-2.00;99.90;;;;;;5078909;28;20250;-64
2021/12/22 00:40:05;;;;;;;23.17;15.77;;;-2.00;99.90;;;;;;5078972;28;20226;-66
2021/12/22 00:42:33;;;;;;;26.50;15.57;;;-2.10;99.90;;;;;;5078651;28;20201;-67
2021/12/22 00:45:01;;;;;;;22.67;14.32;;;-2.10;99.90;;;;;;5078492;28;20303;-65
2021/12/22 00:47:31;;;;;;;22.55;14.23;;;-2.10;99.90;;;;;;5078142;28;20204;-66
2021/12/22 00:50:00;;;;;;;26.85;15.80;;;-2.10;99.90;;;;;;5078956;28;20223;-65
2021/12/22 00:52:28;;;;;;;23.50;16.27;;;-2.10;99.90;;;;;;5079126;28;20295;-65
2021/12/22 00:54:56;;;;;;;20.80;14.18;;;-2.20;99.90;;;;;;5078462;28;20307;-66
2021/12/22 00:57:25;;;;;;;21.83;13.90;;;-2.20;99.90;;;;;;5078612;28;20507;-66
2021/12/22 00:59:53;;;;;;;22.95;14.27;;;-2.20;99.90;;;;;;5078624;28;20224;-66
2021/12/22 01:02:21;;;;;;;20.75;15.07;;;-2.20;99.90;;;;;;5078138;28;20299;-64
2021/12/22 01:04:49;;;;;;;25.55;17.20;;;-2.30;99.90;;;;;;5078154;28;20374;-67
2021/12/22 01:07:17;;;;;;;21.23;14.70;;;-2.30;99.90;;;;;;5078584;28;20299;-67
2021/12/22 01:09:45;;;;;;;21.23;15.10;;;-2.30;99.90;;;;;;5078194;28;20279;-67
2021/12/22 01:12:14;;;;;;;22.40;15.52;;;-2.30;99.90;;;;;;5078168;28;20204;-65
2021/12/22 01:14:43;;;;;;;22.42;13.88;;;-2.30;99.90;;;;;;5078154;28;20200;-65
2021/12/22 01:17:14;;;;;;;24.08;14.95;;;-2.30;99.90;;;;;;5078050;28;20289;-65
2021/12/22 01:19:49;;;;;;;24.23;14.30;;;-2.30;99.90;;;;;;5079239;28;20228;-68
2021/12/22 01:22:28;;;;;;;18.40;13.55;;;-2.40;99.90;;;;;;5091731;28;20259;-66
2021/12/22 01:25:02;;;;;;;22.38;13.98;;;-2.40;99.90;;;;;;5084527;28;20224;-66
2021/12/22 01:27:34;;;;;;;25.63;14.10;;;-2.40;99.90;;;;;;5078229;28;20238;-68
2021/12/22 01:30:05;;;;;;;19.08;12.80;;;-2.40;99.90;;;;;;5078067;28;20655;-66
2021/12/22 01:32:33;;;;;;;20.38;13.18;;;-2.40;99.90;;;;;;5078094;28;20239;-66
2021/12/22 01:35:02;;;;;;;23.20;13.02;;;-2.40;99.90;;;;;;5077681;28;20710;-66
2021/12/22 01:37:30;;;;;;;23.02;15.82;;;-2.40;99.90;;;;;;5077688;28;20287;-65
2021/12/22 01:40:00;;;;;;;23.05;14.88;;;-2.50;99.90;;;;;;5077747;28;20661;-64
2021/12/22 01:42:28;;;;;;;21.83;14.90;;;-2.50;99.90;;;;;;5077840;28;20207;-65
2021/12/22 01:45:13;;;;;;;24.50;14.30;;;-2.50;99.90;;;;;;5077538;28;20311;-65
2021/12/22 01:50:34;;;;;;;21.33;13.60;;;-2.50;99.90;;;;;;5077777;28;20215;-64
2021/12/22 01:53:07;;;;;;;17.95;13.70;;;-2.50;99.90;;;;;;5077833;28;20197;-65
2021/12/22 01:55:39;;;;;;;20.80;12.68;;;-2.50;99.90;;;;;;5078050;28;20275;-64
2021/12/22 01:58:11;;;;;;;23.85;13.88;;;-2.50;99.90;;;;;;5083707;28;20629;-64
2021/12/22 02:00:39;;;;;;;21.15;13.95;;;-2.60;99.90;;;;;;5082601;28;20315;-65
2021/12/22 02:03:08;;;;;;;19.50;12.70;;;-2.60;99.90;;;;;;5083094;28;20205;-65
2021/12/22 02:05:36;;;;;;;20.10;13.77;;;-2.60;99.90;;;;;;5081523;28;20232;-66
2021/12/22 02:08:07;;;;;;;19.95;12.73;;;-2.60;99.90;;;;;;5081716;28;20205;-66
2021/12/22 02:10:38;;;;;;;19.77;14.48;;;-2.60;99.90;;;;;;5081392;28;20284;-66
2021/12/22 02:13:14;;;;;;;20.55;13.07;;;-2.60;99.90;;;;;;5081479;28;20207;-65
2021/12/22 02:15:42;;;;;;;17.45;13.20;;;-2.60;99.90;;;;;;5081439;28;20400;-68
2021/12/22 02:18:16;;;;;;;19.95;12.85;;;-2.60;99.90;;;;;;5081334;28;20223;-64
2021/12/22 02:20:46;;;;;;;16.92;13.02;;;-2.70;99.90;;;;;;5081411;28;20216;-65
2021/12/22 02:23:14;;;;;;;16.40;13.13;;;-2.70;99.90;;;;;;5081202;28;20228;-64
2021/12/22 02:25:48;;;;;;;21.95;13.48;;;-2.70;99.90;;;;;;5086301;27;20227;-64
2021/12/22 02:28:24;;;;;;;18.98;12.98;;;-2.70;99.90;;;;;;5093956;28;20188;-64
2021/12/22 02:30:53;;;;;;;16.60;12.25;;;-2.80;99.90;;;;;;5091751;28;20276;-64
2021/12/22 02:33:24;;;;;;;20.65;12.07;;;-2.80;99.90;;;;;;5103544;28;20207;-64
2021/12/22 02:36:07;;;;;;;20.17;12.80;;;-2.80;99.90;;;;;;5104423;28;20258;-64
2021/12/22 02:38:37;;;;;;;18.27;12.10;;;-2.80;99.90;;;;;;5104652;28;20390;-66
2021/12/22 02:41:08;;;;;;;18.10;12.63;;;-2.90;99.90;;;;;;5103868;28;20211;-63
2021/12/22 02:43:43;;;;;;;17.85;12.10;;;-2.90;99.90;;;;;;5089975;28;20458;-63
2021/12/22 02:46:11;;;;;;;16.17;12.35;;;-2.90;99.90;;;;;;5089374;28;20303;-64
2021/12/22 02:48:40;;;;;;;15.27;11.43;;;-3.00;99.90;;;;;;5090860;28;20199;-64
2021/12/22 02:51:10;;;;;;;21.50;12.70;;;-3.00;99.90;;;;;;5091558;28;20791;-63
2021/12/22 02:53:45;;;;;;;18.67;11.38;;;-3.00;99.90;;;;;;5089957;28;20322;-66
2021/12/22 02:56:26;;;;;;;23.02;12.77;;;-3.10;99.90;;;;;;5098774;28;20682;-63
2021/12/22 02:59:03;;;;;;;16.40;11.18;;;-3.10;99.90;;;;;;5099801;28;20428;-64
2021/12/22 03:02:05;;;;;;;22.77;13.40;;;-3.10;99.90;;;;;;5101934;28;20242;-64
2021/12/22 03:04:34;;;;;;;15.18;11.07;;;-3.10;99.90;;;;;;5101496;28;20237;-64
2021/12/22 03:07:09;;;;;;;15.15;11.90;;;-3.20;99.90;;;;;;5098616;27;20534;-65
2021/12/22 03:09:38;;;;;;;18.30;10.95;;;-3.20;99.90;;;;;;5109799;28;20195;-64
2021/12/22 03:12:10;;;;;;;17.85;12.40;;;-3.20;99.90;;;;;;5101136;28;20699;-65
2021/12/22 03:14:38;;;;;;;16.13;11.18;;;-3.20;99.90;;;;;;5089600;28;20192;-63
2021/12/22 03:17:06;;;;;;;19.10;12.65;;;-3.20;99.90;;;;;;5100175;28;20286;-64
2021/12/22 03:19:35;;;;;;;15.63;11.57;;;-3.20;99.90;;;;;;5097532;28;20290;-64
2021/12/22 03:22:10;;;;;;;17.02;11.90;;;-3.30;99.90;;;;;;5099821;28;20784;-63
2021/12/22 03:24:40;;;;;;;14.77;10.93;;;-3.30;99.90;;;;;;5099750;28;20733;-65
2021/12/22 03:27:08;;;;;;;15.55;10.40;;;-3.30;99.90;;;;;;5100112;28;20405;-64
2021/12/22 03:29:39;;;;;;;17.85;11.45;;;-3.30;99.90;;;;;;5100216;28;20200;-66
2021/12/22 03:32:08;;;;;;;16.25;11.93;;;-3.30;99.90;;;;;;5100064;27;20291;-66
2021/12/22 03:34:36;;;;;;;16.70;12.05;;;-3.30;99.90;;;;;;5100094;28;20295;-66
2021/12/22 03:37:07;;;;;;;20.55;11.88;;;-3.40;99.90;;;;;;5099850;28;20846;-66
2021/12/22 03:39:35;;;;;;;15.88;11.18;;;-3.40;99.90;;;;;;5100506;28;20293;-66
2021/12/22 03:42:04;;;;;;;18.10;11.90;;;-3.40;99.90;;;;;;5100250;28;20225;-67
2021/12/22 03:44:32;;;;;;;17.52;10.90;;;-3.40;99.90;;;;;;5099809;28;20206;-66
2021/12/22 03:47:00;;;;;;;15.65;11.68;;;-3.40;99.90;;;;;;5100169;28;20454;-67
2021/12/22 03:49:29;;;;;;;21.25;11.38;;;-3.50;99.90;;;;;;5099358;28;20199;-66
2021/12/22 03:51:57;;;;;;;17.70;11.20;;;-3.40;99.90;;;;;;5099811;28;20545;-65
2021/12/22 03:54:26;;;;;;;13.77;10.10;;;-3.40;99.90;;;;;;5099185;28;20307;-66
2021/12/22 03:56:54;;;;;;;16.30;10.80;;;-3.40;99.90;;;;;;5099505;28;20737;-66
2021/12/22 03:59:23;;;;;;;15.27;10.02;;;-3.50;99.90;;;;;;5099399;28;20294;-66
2021/12/22 04:01:51;;;;;;;15.75;10.65;;;-3.50;99.90;;;;;;5099067;28;20530;-66
2021/12/22 04:04:19;;;;;;;21.25;11.85;;;-3.50;99.90;;;;;;5099167;28;20203;-66
2021/12/22 04:06:49;;;;;;;16.67;11.50;;;-3.50;99.90;;;;;;5098693;28;20650;-65
2021/12/22 04:09:18;;;;;;;16.40;10.85;;;-3.50;99.90;;;;;;5099180;28;20265;-66
2021/12/22 04:11:47;;;;;;;24.25;11.73;;;-3.50;99.90;;;;;;5099429;28;20195;-64
2021/12/22 04:14:15;;;;;;;14.25;10.45;;;-3.60;99.90;;;;;;5098954;28;20200;-65
2021/12/22 04:16:42;;;;;;;15.10;9.88;;;-3.60;99.90;;;;;;5099148;28;20220;-64
2021/12/22 04:19:10;;;;;;;18.58;10.45;;;-3.60;99.90;;;;;;5099357;28;20717;-63
2021/12/22 04:21:38;;;;;;;18.40;11.80;;;-3.60;99.90;;;;;;5099141;28;20251;-64
2021/12/22 04:24:07;;;;;;;17.67;11.20;;;-3.50;99.90;;;;;;5098113;28;20210;-64
2021/12/22 04:26:35;;;;;;;16.95;11.60;;;-3.60;99.90;;;;;;5100136;28;20335;-64
2021/12/22 04:29:05;;;;;;;16.83;11.93;;;-3.60;99.90;;;;;;5108619;28;20286;-66
2021/12/22 04:31:33;;;;;;;15.73;10.60;;;-3.70;99.90;;;;;;5099239;28;20670;-65
2021/12/22 04:34:03;;;;;;;16.90;10.80;;;-3.70;99.90;;;;;;5100758;28;20435;-63
2021/12/22 04:36:31;;;;;;;16.70;10.70;;;-3.70;99.90;;;;;;5101683;28;20231;-64
2021/12/22 04:38:59;;;;;;;16.65;11.32;;;-3.70;99.90;;;;;;5102088;28;20242;-65
2021/12/22 04:41:27;;;;;;;14.35;10.45;;;-3.70;99.90;;;;;;5099174;28;20255;-65
2021/12/22 04:43:55;;;;;;;17.98;13.00;;;-3.70;99.90;;;;;;5098626;28;20204;-65
2021/12/22 04:46:24;;;;;;;20.30;11.95;;;-3.80;99.90;;;;;;5098092;27;20720;-67
2021/12/22 04:48:52;;;;;;;22.08;11.98;;;-3.70;99.90;;;;;;5098589;28;20501;-65
2021/12/22 04:51:25;;;;;;;18.00;11.43;;;-3.80;99.90;;;;;;5098194;28;20574;-67
2021/12/22 04:54:01;;;;;;;19.27;11.63;;;-3.80;99.90;;;;;;5099183;28;20666;-66
2021/12/22 04:56:29;;;;;;;19.83;11.98;;;-3.80;99.90;;;;;;5101243;28;20854;-67
2021/12/22 04:58:57;;;;;;;20.95;11.52;;;-3.80;99.90;;;;;;5098395;28;20234;-67
2021/12/22 05:01:27;;;;;;;26.67;12.15;;;-3.80;99.90;;;;;;5098348;28;20634;-65
2021/12/22 05:03:56;;;;;;;18.25;10.02;;;-3.90;99.90;;;;;;5098309;28;20200;-67
2021/12/22 05:06:28;;;;;;;17.40;11.10;;;-3.90;99.90;;;;;;5098569;28;20219;-65
2021/12/22 05:08:56;;;;;;;16.33;10.35;;;-3.90;99.90;;;;;;5098604;28;20295;-65
2021/12/22 05:11:24;;;;;;;20.58;10.60;;;-3.90;99.90;;;;;;5098703;28;20662;-66
2021/12/22 05:13:52;;;;;;;17.63;11.27;;;-3.90;99.90;;;;;;5098622;28;20199;-66
2021/12/22 05:16:20;;;;;;;17.17;12.07;;;-3.90;99.90;;;;;;5098314;28;20310;-64
2021/12/22 05:18:57;;;;;;;18.88;11.70;;;-3.90;99.90;;;;;;5098710;28;20689;-67
2021/12/22 05:21:26;;;;;;;17.05;10.23;;;-4.00;99.90;;;;;;5098871;28;20614;-67
2021/12/22 05:23:56;;;;;;;14.75;10.65;;;-4.10;99.90;;;;;;5099094;28;20195;-66
2021/12/22 05:26:25;;;;;;;15.68;11.02;;;-4.10;99.90;;;;;;5098988;28;20230;-66
2021/12/22 05:28:54;;;;;;;18.15;10.90;;;-4.10;99.90;;;;;;5098847;28;20200;-66
2021/12/22 05:31:22;;;;;;;19.60;12.20;;;-4.10;99.90;;;;;;5098790;28;20290;-67
2021/12/22 05:33:51;;;;;;;18.88;9.98;;;-4.10;99.90;;;;;;5099961;28;20284;-67
2021/12/22 05:36:20;;;;;;;20.77;12.90;;;-4.20;99.90;;;;;;5104153;28;20724;-65
2021/12/22 05:38:48;;;;;;;13.93;9.77;;;-4.20;99.90;;;;;;5102905;28;20215;-67
2021/12/22 05:41:16;;;;;;;16.98;11.88;;;-4.20;99.90;;;;;;5102817;28;20210;-68
2021/12/22 05:43:44;;;;;;;17.73;11.25;;;-4.20;99.90;;;;;;5102517;28;20310;-67
2021/12/22 05:46:12;;;;;;;18.35;10.70;;;-4.20;99.90;;;;;;5113830;27;20262;-67
2021/12/22 05:48:40;;;;;;;17.63;10.65;;;-4.30;99.90;;;;;;5102715;28;20199;-67
2021/12/22 05:51:09;;;;;;;17.50;11.05;;;-4.30;99.90;;;;;;5102444;28;20766;-66
2021/12/22 05:53:38;;;;;;;16.73;11.45;;;-4.40;99.90;;;;;;5096908;28;20189;-67
2021/12/22 05:56:05;;;;;;;17.25;10.68;;;-4.40;99.90;;;;;;5095079;27;20216;-66
2021/12/22 05:58:33;;;;;;;17.33;11.30;;;-4.40;99.90;;;;;;5103877;28;20219;-64
2021/12/22 06:01:01;;;;;;;19.80;13.00;;;-4.40;99.90;;;;;;5102523;28;20582;-63
2021/12/22 06:03:29;;;;;;;18.73;10.98;;;-4.40;99.90;;;;;;5101960;28;20215;-64
2021/12/22 06:05:57;;;;;;;20.27;10.65;;;-4.40;99.90;;;;;;5102138;27;20246;-65
2021/12/22 06:08:26;;;;;;;20.35;12.32;;;-4.50;99.90;;;;;;5102280;28;20290;-67
2021/12/22 06:10:54;;;;;;;20.35;10.85;;;-4.50;99.90;;;;;;5090997;28;20445;-65
2021/12/22 06:13:22;;;;;;;17.77;10.30;;;-4.50;99.90;;;;;;5102332;28;20215;-65
2021/12/22 06:15:50;;;;;;;18.00;10.48;;;-4.50;99.90;;;;;;5102027;28;20223;-64
2021/12/22 06:18:18;;;;;;;17.27;9.75;;;-4.50;99.90;;;;;;5083816;28;20227;-64
2021/12/22 06:20:45;;;;;;;17.77;10.23;;;-4.50;99.90;;;;;;5081264;28;20695;-64
2021/12/22 06:23:13;;;;;;;20.42;11.20;;;-4.60;99.90;;;;;;5081546;28;20331;-64
2021/12/22 06:25:43;;;;;;;22.52;12.57;;;-4.60;99.90;;;;;;5081146;28;20320;-64
2021/12/22 06:28:11;;;;;;;19.63;10.27;;;-4.50;99.90;;;;;;5081700;28;20654;-66
2021/12/22 06:30:39;;;;;;;22.13;11.48;;;-4.60;99.90;;;;;;5081085;28;20240;-71
2021/12/22 06:33:06;;;;;;;21.45;12.95;;;-4.70;99.90;;;;;;5080797;28;20695;-63
2021/12/22 06:35:34;;;;;;;16.63;10.23;;;-4.60;99.90;;;;;;5081405;28;20307;-63
2021/12/22 06:38:02;;;;;;;19.63;11.68;;;-4.50;99.90;;;;;;5080548;28;20307;-64
2021/12/22 06:40:30;;;;;;;29.88;13.73;;;-4.50;99.90;;;;;;5080786;28;20271;-67
2021/12/22 06:42:59;;;;;;;21.13;10.32;;;-4.50;99.90;;;;;;5081025;28;20212;-65
2021/12/22 06:45:28;;;;;;;20.40;10.88;;;-4.60;99.90;;;;;;5087632;28;20276;-66
2021/12/22 06:47:56;;;;;;;23.60;11.65;;;-4.60;99.90;;;;;;5088515;28;20278;-64
2021/12/22 06:50:24;;;;;;;20.77;12.38;;;-4.60;99.90;;;;;;5091139;28;20618;-65
2021/12/22 06:52:52;;;;;;;22.42;12.73;;;-4.70;99.90;;;;;;5098745;28;20196;-67
2021/12/22 06:55:20;;;;;;;24.00;12.05;;;-4.70;99.90;;;;;;5092380;28;20357;-66
2021/12/22 06:57:52;;;;;;;22.70;12.65;;;-4.70;99.90;;;;;;5098273;28;20264;-67
2021/12/22 07:00:22;;;;;;;20.13;12.02;;;-4.70;99.90;;;;;;5101031;28;20641;-65
2021/12/22 07:02:50;;;;;;;25.08;14.48;;;-4.80;99.90;;;;;;5102269;28;20223;-65
2021/12/22 07:05:18;;;;;;;20.98;11.30;;;-4.70;99.90;;;;;;5107659;28;20292;-66
2021/12/22 07:07:46;;;;;;;24.48;14.30;;;-4.70;99.90;;;;;;5100932;28;20631;-66
2021/12/22 07:10:14;;;;;;;27.38;14.10;;;-4.70;99.90;;;;;;5101257;27;20208;-66
2021/12/22 07:12:45;;;;;;;26.50;14.10;;;-4.70;99.90;;;;;;5100598;28;20227;-65
2021/12/22 07:15:15;;;;;;;28.23;14.88;;;-4.70;99.90;;;;;;5100555;28;20507;-66
2021/12/22 07:17:46;;;;;;;25.02;13.15;;;-4.60;99.90;;;;;;5100351;28;20732;-66
2021/12/22 07:20:15;;;;;;;33.30;14.40;;;-4.60;99.90;;;;;;5100338;28;20279;-65
2021/12/22 07:22:43;;;;;;;24.65;13.27;;;-4.60;99.90;;;;;;5100280;28;20450;-65
2021/12/22 07:25:14;;;;;;;32.35;13.98;;;-4.40;99.90;;;;;;5100096;27;20645;-64
2021/12/22 07:27:42;;;;;;;34.40;16.50;;;-4.40;99.90;;;;;;5097572;28;20514;-64
2021/12/22 07:30:11;;;;;;;36.38;16.42;;;-4.30;99.90;;;;;;5096701;27;20753;-64
2021/12/22 07:32:39;;;;;;;37.78;15.55;;;-4.20;99.90;;;;;;5092120;28;20242;-63
2021/12/22 07:35:15;;;;;;;32.17;14.32;;;-4.20;99.90;;;;;;5089672;28;20222;-66
2021/12/22 07:37:51;;;;;;;32.13;15.88;;;-4.10;99.90;;;;;;5099059;28;20747;-65
2021/12/22 07:40:20;;;;;;;31.73;15.50;;;-4.10;99.90;;;;;;5099614;28;20227;-65
2021/12/22 07:42:48;;;;;;;40.13;16.25;;;-4.00;99.90;;;;;;5101141;28;20231;-65
2021/12/22 07:45:29;;;;;;;36.42;16.80;;;-3.90;99.90;;;;;;5099723;28;20634;-65
2021/12/22 07:48:02;;;;;;;33.25;15.20;;;-3.90;99.90;;;;;;5098037;28;20196;-65
2021/12/22 07:50:31;;;;;;;37.75;15.80;;;-3.80;99.90;;;;;;5097284;27;20196;-67
2021/12/22 07:52:59;;;;;;;32.50;17.10;;;-3.80;99.90;;;;;;5099524;28;20290;-64
2021/12/22 07:55:27;;;;;;;34.78;17.08;;;-3.80;99.90;;;;;;5100488;28;20224;-64
2021/12/22 07:57:55;;;;;;;32.20;16.67;;;-3.70;99.90;;;;;;5092420;27;20888;-66
2021/12/22 08:00:23;;;;;;;33.80;15.43;;;-3.60;99.90;;;;;;5090935;28;20268;-66
2021/12/22 08:02:50;;;;;;;40.50;18.50;;;-3.60;99.90;;;;;;5094092;28;20835;-65
2021/12/22 08:05:40;;;;;;;32.28;16.90;;;-3.50;99.90;;;;;;5097808;28;20219;-65
2021/12/22 08:08:08;;;;;;;36.17;17.70;;;-3.50;99.90;;;;;;5101066;28;20392;-65
2021/12/22 08:10:36;;;;;;;39.13;15.98;;;-3.40;99.90;;;;;;5100392;28;20241;-67
2021/12/22 08:13:05;;;;;;;32.30;16.40;;;-3.40;99.90;;;;;;5092201;28;20192;-66
2021/12/22 08:15:32;;;;;;;33.80;14.63;;;-3.40;99.90;;;;;;5092010;28;20327;-66
2021/12/22 08:18:00;;;;;;;35.28;15.40;;;-3.30;99.90;;;;;;5089379;28;20847;-67
2021/12/22 08:20:28;;;;;;;34.97;15.10;;;-3.20;99.90;;;;;;5089978;28;20231;-66
2021/12/22 08:22:57;;;;;;;35.42;16.85;;;-3.10;99.90;;;;;;5106906;28;20436;-64
2021/12/22 08:25:25;;;;;;;30.27;16.15;;;-3.10;99.90;;;;;;5102099;27;20298;-64
2021/12/22 08:27:53;;;;;;;38.55;16.35;;;-3.00;99.90;;;;;;5099809;28;20211;-64
2021/12/22 08:30:21;;;;;;;42.05;18.60;;;-3.00;99.90;;;;;;5099808;28;20195;-64
2021/12/22 08:32:49;;;;;;;39.08;17.83;;;-3.00;99.90;;;;;;5099653;28;20268;-66
2021/12/22 08:35:24;;;;;;;33.17;14.98;;;-3.00;99.90;;;;;;5099605;28;20766;-64
2021/12/22 08:40:40;;;;;;;43.15;16.25;;;-2.90;99.90;;;;;;5102234;28;20192;-66
2021/12/22 08:43:08;;;;;;;41.38;16.92;;;-2.80;99.90;;;;;;5105486;28;20286;-65
2021/12/22 08:45:36;;;;;;;38.42;17.45;;;-2.80;99.90;;;;;;5105447;28;20441;-64
2021/12/22 08:48:04;;;;;;;38.30;16.95;;;-2.70;99.90;;;;;;5102886;28;20275;-65
2021/12/22 08:50:32;;;;;;;38.08;17.33;;;-2.60;99.90;;;;;;5104768;28;20231;-65
2021/12/22 08:53:00;;;;;;;44.72;17.80;;;-2.50;99.90;;;;;;5104666;28;20635;-65
2021/12/22 08:55:27;;;;;;;35.67;17.20;;;-2.40;99.90;;;;;;5100987;28;20460;-66
2021/12/22 08:57:56;;;;;;;30.80;16.98;;;-2.40;99.90;;;;;;5103657;28;20286;-63
2021/12/22 09:00:24;;;;;;;31.23;15.95;;;-2.50;99.90;;;;;;5101440;28;20450;-68
2021/12/22 09:02:52;;;;;;;34.78;16.10;;;-2.60;99.90;;;;;;5099396;28;20262;-64
2021/12/22 09:05:20;;;;;;;33.58;16.40;;;-2.70;99.90;;;;;;5099859;28;20223;-66
2021/12/22 09:07:48;;;;;;;40.10;17.90;;;-2.80;99.90;;;;;;5099419;28;20705;-65
2021/12/22 09:10:16;;;;;;;36.55;17.63;;;-2.80;99.90;;;;;;5098285;28;20513;-67
2021/12/22 09:12:44;;;;;;;33.40;18.35;;;-2.90;99.90;;;;;;5099398;28;20324;-64
2021/12/22 09:15:17;;;;;;;39.28;17.80;;;-2.80;99.90;;;;;;5099534;28;20222;-65
2021/12/22 09:17:44;;;;;;;41.97;16.80;;;-2.80;99.90;;;;;;5098605;27;20579;-65
2021/12/22 09:20:12;;;;;;;28.95;15.25;;;-2.70;99.90;;;;;;5098581;28;20631;-65
2021/12/22 09:22:40;;;;;;;32.50;16.10;;;-2.70;99.90;;;;;;5098372;28;20202;-65
2021/12/22 09:25:09;;;;;;;31.42;16.15;;;-2.60;99.90;;;;;;5098210;28;20291;-64
2021/12/22 09:27:38;;;;;;;34.80;15.57;;;-2.50;99.90;;;;;;5098729;28;20200;-66
2021/12/22 09:30:08;;;;;;;33.95;16.75;;;-2.40;99.90;;;;;;5097793;28;20199;-66
2021/12/22 09:32:38;;;;;;;39.42;17.80;;;-2.50;99.90;;;;;;5097250;27;20235;-64
2021/12/22 09:35:09;;;;;;;34.30;16.45;;;-2.50;99.90;;;;;;5099814;28;20653;-64
2021/12/22 09:37:37;;;;;;;30.00;13.68;;;-2.50;99.90;;;;;;5103593;28;20291;-66
2021/12/22 09:40:06;;;;;;;34.95;16.70;;;-2.40;99.90;;;;;;5099047;28;20200;-65
2021/12/22 09:42:34;;;;;;;30.15;15.15;;;-2.40;99.90;;;;;;5106762;27;20239;-65
2021/12/22 09:45:02;;;;;;;37.40;15.57;;;-2.40;99.90;;;;;;5097276;28;20482;-65
2021/12/22 09:47:41;;;;;;;30.92;15.60;;;-2.30;99.90;;;;;;5096986;28;20283;-65
2021/12/22 09:50:12;;;;;;;34.92;15.02;;;-2.20;99.90;;;;;;5077922;28;20651;-66
2021/12/22 09:52:40;;;;;;;33.22;15.85;;;-2.10;99.90;;;;;;5077426;28;20280;-64
2021/12/22 09:55:09;;;;;;;33.55;17.15;;;-2.10;99.90;;;;;;5077248;28;20640;-66
2021/12/22 09:57:37;;;;;;;40.13;16.67;;;-2.00;99.90;;;;;;5077724;28;20295;-65
2021/12/22 10:00:08;;;;;;;37.67;16.40;;;-1.80;99.90;;;;;;5077202;28;20242;-65
2021/12/22 10:02:36;;;;;;;36.13;16.98;;;-1.70;99.90;;;;;;5083951;28;20196;-66
2021/12/22 10:05:04;;;;;;;39.47;17.70;;;-1.70;99.90;;;;;;5097118;28;20249;-65
2021/12/22 10:07:37;;;;;;;40.50;17.55;;;-1.60;99.90;;;;;;5097798;28;20697;-66
2021/12/22 10:10:08;;;;;;;37.67;17.40;;;-1.60;99.90;;;;;;5098529;28;20233;-66
2021/12/22 10:12:36;;;;;;;32.53;16.42;;;-1.60;99.90;;;;;;5097817;28;20414;-65
2021/12/22 10:15:07;;;;;;;46.00;19.45;;;-1.50;99.90;;;;;;5097235;28;20216;-65
2021/12/22 10:17:38;;;;;;;39.80;15.38;;;-1.50;99.90;;;;;;5097796;28;20200;-67
2021/12/22 10:20:11;;;;;;;36.38;17.45;;;-1.40;99.90;;;;;;5097412;28;20234;-79
2021/12/22 10:22:43;;;;;;;41.38;18.83;;;-1.30;99.90;;;;;;5097893;27;20260;-76
2021/12/22 10:25:13;;;;;;;36.95;19.17;;;-1.30;99.90;;;;;;5101180;28;20224;-73
2021/12/22 10:27:43;;;;;;;39.05;18.50;;;-1.20;99.90;;;;;;5102226;28;20242;-73
2021/12/22 10:30:23;;;;;;;43.80;21.08;;;-1.10;99.90;;;;;;5104024;28;20275;-78
2021/12/22 10:33:03;;;;;;;47.78;20.70;;;-1.00;99.90;;;;;;5106922;28;20452;-78
2021/12/22 10:35:33;;;;;;;36.97;18.20;;;-1.00;99.90;;;;;;5102586;28;20215;-74
2021/12/22 10:38:03;;;;;;;42.13;19.73;;;-1.00;99.90;;;;;;5103094;28;20714;-76
2021/12/22 10:40:33;;;;;;;38.67;18.73;;;-0.90;99.90;;;;;;5102418;28;20662;-76
2021/12/22 10:43:02;;;;;;;42.92;20.55;;;-0.90;99.90;;;;;;5102547;28;20214;-67
2021/12/22 10:45:35;;;;;;;39.13;17.77;;;-0.80;99.90;;;;;;5101690;28;20790;-67
2021/12/22 10:50:54;;;;;;;39.92;18.77;;;-0.60;99.90;;;;;;5101547;28;20824;-66
2021/12/22 10:53:24;;;;;;;35.85;17.15;;;-0.50;99.90;;;;;;5102477;28;20268;-66
2021/12/22 10:55:54;;;;;;;31.88;16.52;;;-0.60;99.90;;;;;;5102106;28;20249;-66
2021/12/22 10:58:25;;;;;;;36.60;17.20;;;-0.60;99.90;;;;;;5101948;28;20199;-73
2021/12/22 11:01:01;;;;;;;30.58;16.38;;;-0.50;99.90;;;;;;5102856;27;20301;-76
2021/12/22 11:03:41;;;;;;;30.73;16.13;;;-0.60;99.90;;;;;;5101898;28;20405;-76
2021/12/22 11:06:16;;;;;;;32.03;17.42;;;-0.60;99.90;;;;;;5100706;28;20701;-75
2021/12/22 11:08:59;;;;;;;41.53;17.95;;;-0.50;99.90;;;;;;5092721;28;20241;-78
2021/12/22 11:11:32;;;;;;;36.85;17.90;;;-0.40;99.90;;;;;;5104872;28;20195;-66
2021/12/22 11:14:13;;;;;;;31.60;16.55;;;-0.40;99.90;;;;;;5113102;28;20238;-72
2021/12/22 11:17:02;;;;;;;36.60;19.10;;;-0.40;99.90;;;;;;5104028;28;20389;-73
2021/12/22 11:19:33;;;;;;;35.53;16.55;;;-0.40;99.90;;;;;;5097668;27;20211;-76
2021/12/22 11:22:09;;;;;;;40.30;18.60;;;-0.40;99.90;;;;;;5090039;28;20442;-74
2021/12/22 11:24:46;;;;;;;31.77;17.17;;;-0.40;99.90;;;;;;5098034;28;20205;-67
2021/12/22 11:27:17;;;;;;;41.75;19.05;;;-0.40;99.90;;;;;;5099553;28;20195;-67
2021/12/22 11:29:48;;;;;;;39.65;19.10;;;-0.40;99.90;;;;;;5104039;28;20624;-75
2021/12/22 11:32:17;;;;;;;34.83;18.00;;;-0.40;99.90;;;;;;5099600;28;20224;-76
2021/12/22 11:34:49;;;;;;;39.22;20.17;;;-0.40;99.90;;;;;;5104410;28;20505;-75
2021/12/22 11:37:22;;;;;;;40.92;20.58;;;-0.40;99.90;;;;;;5106756;28;20195;-75
2021/12/22 11:39:52;;;;;;;33.78;17.33;;;-0.40;99.90;;;;;;5104221;28;20200;-78
2021/12/22 11:42:24;;;;;;;38.30;18.70;;;-0.40;99.90;;;;;;5104981;28;20202;-71
2021/12/22 11:44:55;;;;;;;38.67;19.00;;;-0.30;99.90;;;;;;5106037;28;20239;-64
2021/12/22 11:47:23;;;;;;;40.53;18.95;;;-0.20;99.90;;;;;;5102402;28;20631;-68
2021/12/22 11:49:56;;;;;;;41.60;20.25;;;-0.10;99.90;;;;;;5103005;28;20259;-65
2021/12/22 11:52:32;;;;;;;35.33;17.92;;;-0.10;99.90;;;;;;5101002;28;20243;-66
2021/12/22 11:55:17;;;;;;;33.75;17.38;;;-0.10;99.90;;;;;;5097678;28;20219;-67
2021/12/22 11:57:47;;;;;;;38.97;16.90;;;-0.20;99.90;;;;;;5097703;28;20183;-68
2021/12/22 12:00:36;;;;;;;35.88;17.50;;;-0.20;99.90;;;;;;5098141;28;20275;-66
2021/12/22 12:03:23;;;;;;;29.63;16.73;;;-0.30;99.90;;;;;;5092927;28;20286;-68
2021/12/22 12:06:09;;;;;;;39.10;18.85;;;-0.30;99.90;;;;;;5098911;28;20407;-69
2021/12/22 12:08:42;;;;;;;36.33;19.08;;;-0.30;99.90;;;;;;5096905;28;20711;-69
2021/12/22 12:11:14;;;;;;;41.03;19.90;;;-0.20;99.90;;;;;;5093241;28;20184;-67
2021/12/22 12:13:48;;;;;;;38.35;19.10;;;-0.10;99.90;;;;;;5099109;28;20195;-67
2021/12/22 12:22:25;;;;;;;38.20;20.52;;;0.00;99.90;;;;;;5099960;28;20290;-67
2021/12/22 12:25:08;;;;;;;42.90;18.40;;;0.00;99.90;;;;;;5099660;28;20226;-68
2021/12/22 12:27:50;;;;;;;34.13;18.02;;;0.10;99.90;;;;;;5099118;28;20589;-68
2021/12/22 12:30:23;;;;;;;40.28;20.00;;;0.10;99.90;;;;;;5100387;28;20199;-74
2021/12/22 12:33:07;;;;;;;40.72;19.40;;;0.20;99.90;;;;;;5097494;27;20720;-65
2021/12/22 12:35:54;;;;;;;38.38;19.90;;;0.30;99.90;;;;;;5099617;28;20298;-65
2021/12/22 12:38:25;;;;;;;35.55;19.30;;;0.30;99.90;;;;;;5099856;28;20294;-65
2021/12/22 12:41:12;;;;;;;42.75;21.67;;;0.30;99.90;;;;;;5099580;28;20203;-66
2021/12/22 12:44:00;;;;;;;39.88;22.88;;;0.30;99.90;;;;;;5097713;27;20701;-66
2021/12/22 12:46:35;;;;;;;35.38;17.85;;;0.40;99.90;;;;;;5099891;28;20734;-65
2021/12/22 12:49:46;;;;;;;37.15;18.88;;;0.40;99.90;;;;;;5101072;28;20195;-65
2021/12/22 12:52:24;;;;;;;34.17;18.90;;;0.40;99.90;;;;;;5096888;28;20188;-66
2021/12/22 12:55:12;;;;;;;38.70;18.05;;;0.40;99.90;;;;;;5096796;28;20307;-65
2021/12/22 12:57:40;;;;;;;34.75;19.33;;;0.30;99.90;;;;;;5087595;28;20256;-65
2021/12/22 13:00:21;;;;;;;38.20;19.13;;;0.30;99.90;;;;;;5096018;28;20236;-65